sensor_id;sensor_type;location;lat;lon;timestamp;pressure;altitude;pressure_sealevel;temperature;humidity
6134;BME280;3098;42.678;23.364;2023-04-05T00:00:00;94329.03;;;-0.79;100.00
6134;BME280;3098;42.678;23.364;2023-04-05T00:02:33;94356.81;;;-0.47;100.00
6134;BME280;3098;42.678;23.364;2023-04-05T00:05:01;94397.03;;;-0.28;100.00
6134;BME280;3098;42.678;23.364;2023-04-05T00:07:29;94415.13;;;-0.12;100.00
6134;BME280;3098;42.678;23.364;2023-04-05T00:09:58;94349.47;;;-0.55;100.00
6134;BME280;3098;42.678;23.364;2023-04-05T00:12:27;94414.38;;;-0.02;100.00
6134;BME280;3098;42.678;23.364;2023-04-05T00:14:54;94417.75;;;-0.07;100.00
6134;BME280;3098;42.678;23.364;2023-04-05T00:17:21;94423.25;;;-0.03;100.00
6134;BME280;3098;42.678;23.364;2023-04-05T00:19:48;94413.66;;;0.03;100.00
6134;BME280;3098;42.678;23.364;2023-04-05T00:22:22;94422.00;;;0.10;100.00
6134;BME280;3098;42.678;23.364;2023-04-05T00:24:51;94375.44;;;-0.24;100.00
6134;BME280;3098;42.678;23.364;2023-04-05T00:27:18;94374.84;;;-0.41;100.00
6134;BME280;3098;42.678;23.364;2023-04-05T00:29:46;94381.66;;;-0.35;100.00
6134;BME280;3098;42.678;23.364;2023-04-05T00:32:14;94424.31;;;0.01;100.00
6134;BME280;3098;42.678;23.364;2023-04-05T00:34:41;94426.63;;;-0.03;100.00
6134;BME280;3098;42.678;23.364;2023-04-05T00:37:08;94434.50;;;0.03;100.00
6134;BME280;3098;42.678;23.364;2023-04-05T00:39:35;94435.50;;;-0.04;100.00
6134;BME280;3098;42.678;23.364;2023-04-05T00:42:02;94356.81;;;-0.47;100.00
6134;BME280;3098;42.678;23.364;2023-04-05T00:44:29;94436.06;;;0.04;100.00
6134;BME280;3098;42.678;23.364;2023-04-05T00:47:02;94431.63;;;0.04;100.00
6134;BME280;3098;42.678;23.364;2023-04-05T00:49:31;94426.63;;;-0.03;100.00
6134;BME280;3098;42.678;23.364;2023-04-05T00:51:59;94434.25;;;0.09;100.00
6134;BME280;3098;42.678;23.364;2023-04-05T00:54:27;94427.44;;;0.03;100.00
6134;BME280;3098;42.678;23.364;2023-04-05T00:56:55;94434.75;;;0.01;100.00
6134;BME280;3098;42.678;23.364;2023-04-05T00:59:22;94437.13;;;0.08;100.00
6134;BME280;3098;42.678;23.364;2023-04-05T01:01:55;94435.53;;;0.02;100.00
6134;BME280;3098;42.678;23.364;2023-04-05T01:04:30;94446.25;;;0.05;100.00
6134;BME280;3098;42.678;23.364;2023-04-05T01:07:06;94438.94;;;0.07;100.00
6134;BME280;3098;42.678;23.364;2023-04-05T01:09:45;94438.91;;;0.02;100.00
6134;BME280;3098;42.678;23.364;2023-04-05T01:12:16;94432.13;;;0.01;100.00
6134;BME280;3098;42.678;23.364;2023-04-05T01:14:48;94423.19;;;-0.13;100.00
6134;BME280;3098;42.678;23.364;2023-04-05T01:17:16;94435.53;;;0.02;100.00
6134;BME280;3098;42.678;23.364;2023-04-05T01:19:48;94373.53;;;-0.38;100.00
6134;BME280;3098;42.678;23.364;2023-04-05T01:23:02;94454.59;;;0.12;100.00
6134;BME280;3098;42.678;23.364;2023-04-05T01:25:56;94417.75;;;-0.07;100.00
6134;BME280;3098;42.678;23.364;2023-04-05T01:28:44;94442.81;;;-0.01;100.00
6134;BME280;3098;42.678;23.364;2023-04-05T01:31:22;94399.72;;;-0.18;100.00
6134;BME280;3098;42.678;23.364;2023-04-05T01:33:57;94398.13;;;-0.19;100.00
6134;BME280;3098;42.678;23.364;2023-04-05T01:36:30;94386.88;;;-0.30;100.00
6134;BME280;3098;42.678;23.364;2023-04-05T01:39:00;94426.09;;;-0.10;100.00
6134;BME280;3098;42.678;23.364;2023-04-05T01:41:29;94415.13;;;-0.12;100.00
6134;BME280;3098;42.678;23.364;2023-04-05T01:43:56;94440.47;;;0.03;100.00
6134;BME280;3098;42.678;23.364;2023-04-05T01:46:25;94426.91;;;-0.04;100.00
6134;BME280;3098;42.678;23.364;2023-04-05T01:48:53;94449.63;;;0.06;100.00
6134;BME280;3098;42.678;23.364;2023-04-05T01:51:24;94426.88;;;-0.09;100.00
6134;BME280;3098;42.678;23.364;2023-04-05T01:53:51;94390.00;;;-0.28;100.00
6134;BME280;3098;42.678;23.364;2023-04-05T01:56:19;94446.25;;;0.05;100.00
6134;BME280;3098;42.678;23.364;2023-04-05T01:58:53;94383.50;;;-0.30;100.00
6134;BME280;3098;42.678;23.364;2023-04-05T02:01:21;94444.66;;;0.04;100.00
6134;BME280;3098;42.678;23.364;2023-04-05T02:03:52;94417.47;;;-0.10;100.00
6134;BME280;3098;42.678;23.364;2023-04-05T02:06:19;94455.09;;;0.04;100.00
6134;BME280;3098;42.678;23.364;2023-04-05T02:08:46;94427.41;;;-0.02;100.00
6134;BME280;3098;42.678;23.364;2023-04-05T02:11:14;94415.69;;;-0.05;100.00
6134;BME280;3098;42.678;23.364;2023-04-05T02:13:41;94456.94;;;0.09;100.00
6134;BME280;3098;42.678;23.364;2023-04-05T02:16:09;94418.50;;;-0.11;100.00
6134;BME280;3098;42.678;23.364;2023-04-05T02:18:36;94449.34;;;0.02;100.00
6134;BME280;3098;42.678;23.364;2023-04-05T02:21:06;94442.06;;;0.09;100.00
6134;BME280;3098;42.678;23.364;2023-04-05T02:23:37;94448.34;;;0.08;100.00
6134;BME280;3098;42.678;23.364;2023-04-05T02:26:06;94422.69;;;-0.10;100.00
6134;BME280;3098;42.678;23.364;2023-04-05T02:28:33;94394.72;;;-0.25;100.00
6134;BME280;3098;42.678;23.364;2023-04-05T02:31:01;94456.94;;;0.09;100.00
6134;BME280;3098;42.678;23.364;2023-04-05T02:33:28;94428.44;;;-0.08;100.00
6134;BME280;3098;42.678;23.364;2023-04-05T02:35:55;94452.25;;;0.06;100.00
6134;BME280;3098;42.678;23.364;2023-04-05T02:38:24;94450.66;;;0.05;100.00
6134;BME280;3098;42.678;23.364;2023-04-05T02:40:51;94428.69;;;-0.10;100.00
6134;BME280;3098;42.678;23.364;2023-04-05T02:43:17;94428.72;;;-0.05;100.00
6134;BME280;3098;42.678;23.364;2023-04-05T02:45:44;94424.78;;;-0.07;100.00
6134;BME280;3098;42.678;23.364;2023-04-05T02:48:11;94441.56;;;0.07;100.00
6134;BME280;3098;42.678;23.364;2023-04-05T02:50:38;94428.78;;;0.06;100.00
6134;BME280;3098;42.678;23.364;2023-04-05T02:53:05;94425.31;;;-0.05;100.00
6134;BME280;3098;42.678;23.364;2023-04-05T02:55:33;94412.25;;;-0.10;100.00
6134;BME280;3098;42.678;23.364;2023-04-05T02:58:00;94433.19;;;0.00;100.00
6134;BME280;3098;42.678;23.364;2023-04-05T03:00:27;94443.38;;;0.07;100.00
6134;BME280;3098;42.678;23.364;2023-04-05T03:02:54;94401.78;;;-0.20;100.00
6134;BME280;3098;42.678;23.364;2023-04-05T03:05:22;94446.78;;;0.12;100.00
6134;BME280;3098;42.678;23.364;2023-04-05T03:07:49;94434.03;;;0.16;100.00
6134;BME280;3098;42.678;23.364;2023-04-05T03:10:16;94432.69;;;0.08;100.00
6134;BME280;3098;42.678;23.364;2023-04-05T03:12:48;94426.38;;;-0.01;100.00
6134;BME280;3098;42.678;23.364;2023-04-05T03:15:15;94416.19;;;-0.08;100.00
6134;BME280;3098;42.678;23.364;2023-04-05T03:17:42;94436.34;;;0.07;100.00
6134;BME280;3098;42.678;23.364;2023-04-05T03:20:11;94364.16;;;-0.39;100.00
6134;BME280;3098;42.678;23.364;2023-04-05T03:22:39;94414.63;;;-0.09;100.00
6134;BME280;3098;42.678;23.364;2023-04-05T03:25:06;94378.53;;;-0.32;100.00
6134;BME280;3098;42.678;23.364;2023-04-05T03:27:33;94364.91;;;-0.44;100.00
6134;BME280;3098;42.678;23.364;2023-04-05T03:30:01;94403.06;;;-0.23;100.00
6134;BME280;3098;42.678;23.364;2023-04-05T03:32:29;94449.66;;;0.11;100.00
6134;BME280;3098;42.678;23.364;2023-04-05T03:34:56;94455.09;;;0.09;100.00
6134;BME280;3098;42.678;23.364;2023-04-05T03:37:23;94413.56;;;-0.08;100.00
6134;BME280;3098;42.678;23.364;2023-04-05T03:39:50;94341.16;;;-0.57;100.00
6134;BME280;3098;42.678;23.364;2023-04-05T03:42:17;94427.19;;;-0.01;100.00
6134;BME280;3098;42.678;23.364;2023-04-05T03:44:44;94449.91;;;0.09;100.00
6134;BME280;3098;42.678;23.364;2023-04-05T03:47:13;94455.88;;;0.05;100.00
6134;BME280;3098;42.678;23.364;2023-04-05T03:49:40;94406.69;;;-0.29;100.00
6134;BME280;3098;42.678;23.364;2023-04-05T03:52:07;94451.47;;;0.05;100.00
6134;BME280;3098;42.678;23.364;2023-04-05T03:54:35;94411.41;;;-0.26;100.00
6134;BME280;3098;42.678;23.364;2023-04-05T03:57:02;94464.75;;;0.09;100.00
6134;BME280;3098;42.678;23.364;2023-04-05T03:59:29;94438.31;;;-0.15;100.00
6134;BME280;3098;42.678;23.364;2023-04-05T04:01:55;94472.56;;;0.04;100.00
6134;BME280;3098;42.678;23.364;2023-04-05T04:04:24;94467.44;;;-0.23;100.00
6134;BME280;3098;42.678;23.364;2023-04-05T04:06:51;94451.25;;;-0.25;100.00
6134;BME280;3098;42.678;23.364;2023-04-05T04:09:18;94422.47;;;-0.45;100.00
6134;BME280;3098;42.678;23.364;2023-04-05T04:11:47;94454.16;;;-0.22;100.00
6134;BME280;3098;42.678;23.364;2023-04-05T04:14:14;94466.69;;;-0.19;100.00
6134;BME280;3098;42.678;23.364;2023-04-05T04:16:41;94438.69;;;-0.38;100.00
6134;BME280;3098;42.678;23.364;2023-04-05T04:19:08;94470.59;;;-0.16;100.00
6134;BME280;3098;42.678;23.364;2023-04-05T04:21:36;94448.13;;;-0.27;100.00
6134;BME280;3098;42.678;23.364;2023-04-05T04:24:04;94404.44;;;-0.57;100.00
6134;BME280;3098;42.678;23.364;2023-04-05T04:26:32;94294.66;;;-1.23;100.00
6134;BME280;3098;42.678;23.364;2023-04-05T04:29:02;94122.88;;;-2.43;100.00
6134;BME280;3098;42.678;23.364;2023-04-05T04:31:30;94456.28;;;-0.14;100.00
6134;BME280;3098;42.678;23.364;2023-04-05T04:33:58;94481.88;;;-0.06;100.00
6134;BME280;3098;42.678;23.364;2023-04-05T04:36:26;94473.31;;;-0.01;100.00
6134;BME280;3098;42.678;23.364;2023-04-05T04:39:02;94439.81;;;-0.24;100.00
6134;BME280;3098;42.678;23.364;2023-04-05T04:41:31;94265.16;;;-1.33;100.00
6134;BME280;3098;42.678;23.364;2023-04-05T04:44:00;94477.56;;;0.10;100.00
6134;BME280;3098;42.678;23.364;2023-04-05T04:46:29;94479.88;;;0.07;100.00
6134;BME280;3098;42.678;23.364;2023-04-05T04:48:59;94499.50;;;0.19;100.00
6134;BME280;3098;42.678;23.364;2023-04-05T04:51:30;94485.41;;;0.20;100.00
6134;BME280;3098;42.678;23.364;2023-04-05T04:53:57;94410.06;;;-0.28;100.00
6134;BME280;3098;42.678;23.364;2023-04-05T04:56:26;94451.16;;;0.02;100.00
6134;BME280;3098;42.678;23.364;2023-04-05T04:58:53;94333.22;;;-0.73;100.00
6134;BME280;3098;42.678;23.364;2023-04-05T05:01:21;94388.72;;;-0.25;100.00
6134;BME280;3098;42.678;23.364;2023-04-05T05:03:49;94489.19;;;0.39;100.00
6134;BME280;3098;42.678;23.364;2023-04-05T05:06:17;94433.47;;;0.09;100.00
6134;BME280;3098;42.678;23.364;2023-04-05T05:08:46;94459.34;;;0.20;100.00
6134;BME280;3098;42.678;23.364;2023-04-05T05:11:14;94478.75;;;0.44;100.00
6134;BME280;3098;42.678;23.364;2023-04-05T05:13:44;94408.88;;;-0.06;100.00
6134;BME280;3098;42.678;23.364;2023-04-05T05:16:11;94490.25;;;0.48;100.00
6134;BME280;3098;42.678;23.364;2023-04-05T05:18:39;94449.38;;;0.12;100.00
6134;BME280;3098;42.678;23.364;2023-04-05T05:21:09;94484.41;;;0.26;100.00
6134;BME280;3098;42.678;23.364;2023-04-05T05:23:36;94484.47;;;0.41;100.00
6134;BME280;3098;42.678;23.364;2023-04-05T05:26:03;94384.00;;;-0.28;100.00
6134;BME280;3098;42.678;23.364;2023-04-05T05:28:29;94482.41;;;0.48;100.00
6134;BME280;3098;42.678;23.364;2023-04-05T05:30:58;94492.91;;;0.58;100.00
6134;BME280;3098;42.678;23.364;2023-04-05T05:33:25;94500.22;;;0.56;100.00
6134;BME280;3098;42.678;23.364;2023-04-05T05:35:52;94504.09;;;0.54;100.00
6134;BME280;3098;42.678;23.364;2023-04-05T05:38:18;94499.44;;;0.61;100.00
6134;BME280;3098;42.678;23.364;2023-04-05T05:40:47;94472.53;;;0.50;100.00
6134;BME280;3098;42.678;23.364;2023-04-05T05:43:14;94494.00;;;0.73;100.00
6134;BME280;3098;42.678;23.364;2023-04-05T05:45:41;94504.72;;;0.81;100.00
6134;BME280;3098;42.678;23.364;2023-04-05T05:48:12;94489.88;;;0.87;100.00
6134;BME280;3098;42.678;23.364;2023-04-05T05:50:38;94486.75;;;0.85;100.00
6134;BME280;3098;42.678;23.364;2023-04-05T05:53:06;94490.94;;;1.11;100.00
6134;BME280;3098;42.678;23.364;2023-04-05T05:55:33;94471.13;;;1.05;100.00
6134;BME280;3098;42.678;23.364;2023-04-05T05:57:59;94469.31;;;1.10;100.00
6134;BME280;3098;42.678;23.364;2023-04-05T06:00:27;94462.50;;;1.04;100.00
6134;BME280;3098;42.678;23.364;2023-04-05T06:02:54;94495.16;;;1.22;100.00
6134;BME280;3098;42.678;23.364;2023-04-05T06:05:24;94464.34;;;1.24;100.00
6134;BME280;3098;42.678;23.364;2023-04-05T06:07:51;94493.09;;;1.54;100.00
6134;BME280;3098;42.678;23.364;2023-04-05T06:10:18;94490.22;;;1.51;100.00
6134;BME280;3098;42.678;23.364;2023-04-05T06:12:45;94504.06;;;1.56;100.00
6134;BME280;3098;42.678;23.364;2023-04-05T06:15:12;94509.31;;;1.51;100.00
6134;BME280;3098;42.678;23.364;2023-04-05T06:17:39;94496.25;;;1.66;100.00
6134;BME280;3098;42.678;23.364;2023-04-05T06:20:07;94496.50;;;1.65;100.00
6134;BME280;3098;42.678;23.364;2023-04-05T06:22:37;94410.78;;;1.16;100.00
6134;BME280;3098;42.678;23.364;2023-04-05T06:25:07;94511.38;;;1.85;100.00
6134;BME280;3098;42.678;23.364;2023-04-05T06:27:34;94508.25;;;1.88;100.00
6134;BME280;3098;42.678;23.364;2023-04-05T06:30:02;94482.66;;;1.74;100.00
6134;BME280;3098;42.678;23.364;2023-04-05T06:32:29;94511.38;;;2.15;100.00
6134;BME280;3098;42.678;23.364;2023-04-05T06:34:57;94516.06;;;2.23;100.00
6134;BME280;3098;42.678;23.364;2023-04-05T06:37:24;94442.91;;;1.83;100.00
6134;BME280;3098;42.678;23.364;2023-04-05T06:39:52;94510.88;;;1.98;100.00
6134;BME280;3098;42.678;23.364;2023-04-05T06:42:20;94510.09;;;1.87;100.00
6134;BME280;3098;42.678;23.364;2023-04-05T06:44:46;94493.34;;;1.88;100.00
6134;BME280;3098;42.678;23.364;2023-04-05T06:47:13;94522.34;;;2.02;100.00
6134;BME280;3098;42.678;23.364;2023-04-05T06:49:40;94489.69;;;1.89;100.00
6134;BME280;3098;42.678;23.364;2023-04-05T06:52:07;94534.88;;;2.30;100.00
6134;BME280;3098;42.678;23.364;2023-04-05T06:54:36;94454.63;;;2.00;100.00
6134;BME280;3098;42.678;23.364;2023-04-05T06:57:05;94491.63;;;2.53;100.00
6134;BME280;3098;42.678;23.364;2023-04-05T06:59:32;94540.00;;;2.70;100.00
6134;BME280;3098;42.678;23.364;2023-04-05T07:01:59;94391.72;;;1.61;100.00
6134;BME280;3098;42.678;23.364;2023-04-05T07:04:26;94544.53;;;2.50;100.00
6134;BME280;3098;42.678;23.364;2023-04-05T07:06:59;94512.66;;;2.33;100.00
6134;BME280;3098;42.678;23.364;2023-04-05T07:09:27;94558.06;;;2.77;100.00
6134;BME280;3098;42.678;23.364;2023-04-05T07:11:57;94562.72;;;2.95;100.00
6134;BME280;3098;42.678;23.364;2023-04-05T07:14:25;94560.94;;;2.80;100.00
6134;BME280;3098;42.678;23.364;2023-04-05T07:16:52;94539.53;;;2.53;100.00
6134;BME280;3098;42.678;23.364;2023-04-05T07:19:19;94500.34;;;2.38;100.00
6134;BME280;3098;42.678;23.364;2023-04-05T07:21:46;94546.56;;;2.73;100.00
6134;BME280;3098;42.678;23.364;2023-04-05T07:24:13;94535.00;;;2.79;100.00
6134;BME280;3098;42.678;23.364;2023-04-05T07:26:41;94343.13;;;1.50;99.94
6134;BME280;3098;42.678;23.364;2023-04-05T07:29:08;94559.56;;;3.03;100.00
6134;BME280;3098;42.678;23.364;2023-04-05T07:31:37;94544.44;;;2.80;99.84
6134;BME280;3098;42.678;23.364;2023-04-05T07:34:05;94565.66;;;2.73;100.00
6134;BME280;3098;42.678;23.364;2023-04-05T07:36:32;94568.28;;;2.73;100.00
6134;BME280;3098;42.678;23.364;2023-04-05T07:38:59;94565.41;;;2.80;100.00
6134;BME280;3098;42.678;23.364;2023-04-05T07:41:28;94577.16;;;2.82;100.00
6134;BME280;3098;42.678;23.364;2023-04-05T07:43:57;94578.84;;;2.28;100.00
6134;BME280;3098;42.678;23.364;2023-04-05T07:46:24;94576.50;;;2.16;100.00
6134;BME280;3098;42.678;23.364;2023-04-05T07:48:53;94567.88;;;2.11;100.00
6134;BME280;3098;42.678;23.364;2023-04-05T07:51:20;94566.03;;;2.21;100.00
6134;BME280;3098;42.678;23.364;2023-04-05T07:53:47;94578.34;;;2.11;100.00
6134;BME280;3098;42.678;23.364;2023-04-05T07:56:14;94535.19;;;1.68;100.00
6134;BME280;3098;42.678;23.364;2023-04-05T07:58:41;94565.00;;;1.72;100.00
6134;BME280;3098;42.678;23.364;2023-04-05T08:01:09;94591.44;;;1.96;100.00
6134;BME280;3098;42.678;23.364;2023-04-05T08:03:37;94505.13;;;1.45;100.00
6134;BME280;3098;42.678;23.364;2023-04-05T08:06:13;94583.56;;;1.91;100.00
6134;BME280;3098;42.678;23.364;2023-04-05T08:08:42;94614.44;;;2.14;100.00
6134;BME280;3098;42.678;23.364;2023-04-05T08:11:09;94591.41;;;2.06;100.00
6134;BME280;3098;42.678;23.364;2023-04-05T08:13:36;94577.03;;;1.88;100.00
6134;BME280;3098;42.678;23.364;2023-04-05T08:16:06;94602.13;;;1.99;100.00
6134;BME280;3098;42.678;23.364;2023-04-05T08:18:33;94574.41;;;1.83;100.00
6134;BME280;3098;42.678;23.364;2023-04-05T08:21:01;94606.06;;;2.12;100.00
6134;BME280;3098;42.678;23.364;2023-04-05T08:23:29;94584.34;;;1.96;100.00
6134;BME280;3098;42.678;23.364;2023-04-05T08:25:57;94557.16;;;1.72;100.00
6134;BME280;3098;42.678;23.364;2023-04-05T08:28:24;94618.09;;;2.13;100.00
6134;BME280;3098;42.678;23.364;2023-04-05T08:30:52;94615.47;;;2.03;100.00
6134;BME280;3098;42.678;23.364;2023-04-05T08:33:20;94511.91;;;1.51;100.00
6134;BME280;3098;42.678;23.364;2023-04-05T08:35:48;94615.75;;;2.21;100.00
6134;BME280;3098;42.678;23.364;2023-04-05T08:38:15;94601.34;;;2.19;100.00
6134;BME280;3098;42.678;23.364;2023-04-05T08:40:44;94591.94;;;2.13;100.00
6134;BME280;3098;42.678;23.364;2023-04-05T08:43:17;94574.69;;;2.12;100.00
6134;BME280;3098;42.678;23.364;2023-04-05T08:45:48;94630.38;;;2.63;100.00
6134;BME280;3098;42.678;23.364;2023-04-05T08:48:15;94618.59;;;2.60;100.00
6134;BME280;3098;42.678;23.364;2023-04-05T08:50:48;94611.78;;;2.59;100.00
6134;BME280;3098;42.678;23.364;2023-04-05T08:53:16;94631.69;;;2.50;100.00
6134;BME280;3098;42.678;23.364;2023-04-05T08:55:48;94585.94;;;2.02;100.00
6134;BME280;3098;42.678;23.364;2023-04-05T08:58:16;94636.94;;;2.50;100.00
6134;BME280;3098;42.678;23.364;2023-04-05T09:00:44;94637.19;;;2.49;100.00
6134;BME280;3098;42.678;23.364;2023-04-05T09:03:14;94646.09;;;2.58;100.00
6134;BME280;3098;42.678;23.364;2023-04-05T09:05:44;94503.53;;;1.39;100.00
6134;BME280;3098;42.678;23.364;2023-04-05T09:08:12;94642.69;;;2.42;100.00
6134;BME280;3098;42.678;23.364;2023-04-05T09:10:39;94632.25;;;2.32;100.00
6134;BME280;3098;42.678;23.364;2023-04-05T09:13:07;94617.59;;;2.21;100.00
6134;BME280;3098;42.678;23.364;2023-04-05T09:15:35;94583.56;;;2.41;100.00
6134;BME280;3098;42.678;23.364;2023-04-05T09:18:03;94585.09;;;2.57;100.00
6134;BME280;3098;42.678;23.364;2023-04-05T09:20:30;94651.00;;;3.00;100.00
6134;BME280;3098;42.678;23.364;2023-04-05T09:22:57;94595.06;;;2.45;100.00
6134;BME280;3098;42.678;23.364;2023-04-05T09:25:33;94643.69;;;2.76;100.00
6134;BME280;3098;42.678;23.364;2023-04-05T09:28:03;94649.94;;;3.06;100.00
6134;BME280;3098;42.678;23.364;2023-04-05T09:30:32;94655.19;;;2.90;100.00
6134;BME280;3098;42.678;23.364;2023-04-05T09:33:01;94647.72;;;3.33;99.66
6134;BME280;3098;42.678;23.364;2023-04-05T09:35:30;94518.03;;;2.61;97.90
6134;BME280;3098;42.678;23.364;2023-04-05T09:37:58;94635.47;;;3.23;97.03
6134;BME280;3098;42.678;23.364;2023-04-05T09:40:40;94639.50;;;2.85;97.91
6134;BME280;3098;42.678;23.364;2023-04-05T09:43:08;94640.16;;;3.21;98.36
6134;BME280;3098;42.678;23.364;2023-04-05T09:45:39;94623.00;;;3.54;96.76
6134;BME280;3098;42.678;23.364;2023-04-05T09:48:07;94629.16;;;3.24;95.20
6134;BME280;3098;42.678;23.364;2023-04-05T09:50:35;94552.50;;;2.94;95.45
6134;BME280;3098;42.678;23.364;2023-04-05T09:53:06;94563.53;;;3.44;94.29
6134;BME280;3098;42.678;23.364;2023-04-05T09:55:34;94627.34;;;4.13;92.82
6134;BME280;3098;42.678;23.364;2023-04-05T09:58:01;94524.13;;;4.51;90.98
6134;BME280;3098;42.678;23.364;2023-04-05T10:00:28;94635.16;;;4.56;87.31
6134;BME280;3098;42.678;23.364;2023-04-05T10:02:57;94637.03;;;4.51;88.70
6134;BME280;3098;42.678;23.364;2023-04-05T10:05:26;94594.41;;;3.53;88.42
6134;BME280;3098;42.678;23.364;2023-04-05T10:07:54;94520.03;;;3.38;88.86
6134;BME280;3098;42.678;23.364;2023-04-05T10:10:22;94612.19;;;4.04;88.50
6134;BME280;3098;42.678;23.364;2023-04-05T10:12:50;94639.44;;;4.47;84.49
6134;BME280;3098;42.678;23.364;2023-04-05T10:15:19;94626.56;;;4.46;83.35
6134;BME280;3098;42.678;23.364;2023-04-05T10:17:47;94638.34;;;4.53;81.86
6134;BME280;3098;42.678;23.364;2023-04-05T10:20:18;94623.16;;;4.74;80.36
6134;BME280;3098;42.678;23.364;2023-04-05T10:22:57;94635.41;;;4.84;77.90
6134;BME280;3098;42.678;23.364;2023-04-05T10:25:32;94641.34;;;4.65;78.59
6134;BME280;3098;42.678;23.364;2023-04-05T10:28:03;94641.16;;;4.91;77.40
6134;BME280;3098;42.678;23.364;2023-04-05T10:30:34;94571.53;;;3.68;79.88
6134;BME280;3098;42.678;23.364;2023-04-05T10:33:15;94510.38;;;3.34;81.20
6134;BME280;3098;42.678;23.364;2023-04-05T10:35:56;94643.81;;;3.84;84.25
6134;BME280;3098;42.678;23.364;2023-04-05T10:38:27;94601.88;;;4.47;81.68
6134;BME280;3098;42.678;23.364;2023-04-05T10:41:04;94495.25;;;4.22;77.97
6134;BME280;3098;42.678;23.364;2023-04-05T10:43:33;94642.75;;;5.58;74.96
6134;BME280;3098;42.678;23.364;2023-04-05T10:46:01;94598.81;;;4.92;76.39
6134;BME280;3098;42.678;23.364;2023-04-05T10:48:45;94631.75;;;4.85;76.55
6134;BME280;3098;42.678;23.364;2023-04-05T10:51:18;94568.03;;;4.17;78.23
6134;BME280;3098;42.678;23.364;2023-04-05T10:53:46;94647.19;;;4.62;79.44
6134;BME280;3098;42.678;23.364;2023-04-05T10:56:14;94586.44;;;4.40;78.30
6134;BME280;3098;42.678;23.364;2023-04-05T10:58:42;94494.19;;;3.22;78.81
6134;BME280;3098;42.678;23.364;2023-04-05T11:01:10;94601.13;;;4.13;79.21
6134;BME280;3098;42.678;23.364;2023-04-05T11:03:45;94663.75;;;4.58;78.82
6134;BME280;3098;42.678;23.364;2023-04-05T11:06:30;94655.69;;;4.49;77.90
6134;BME280;3098;42.678;23.364;2023-04-05T11:08:59;94615.59;;;4.39;77.93
6134;BME280;3098;42.678;23.364;2023-04-05T11:11:37;94658.19;;;4.93;77.99
6134;BME280;3098;42.678;23.364;2023-04-05T11:14:17;94656.44;;;4.84;76.60
6134;BME280;3098;42.678;23.364;2023-04-05T11:16:46;94594.25;;;4.74;76.70
6134;BME280;3098;42.678;23.364;2023-04-05T11:19:15;94626.28;;;5.05;75.08
6134;BME280;3098;42.678;23.364;2023-04-05T11:21:44;94596.38;;;4.72;72.36
6134;BME280;3098;42.678;23.364;2023-04-05T11:24:12;94582.75;;;4.70;71.93
6134;BME280;3098;42.678;23.364;2023-04-05T11:26:54;94611.97;;;5.77;70.54
6134;BME280;3098;42.678;23.364;2023-04-05T11:29:46;94654.13;;;6.14;68.96
6134;BME280;3098;42.678;23.364;2023-04-05T11:32:21;94589.22;;;5.25;69.46
6134;BME280;3098;42.678;23.364;2023-04-05T11:34:59;94597.53;;;5.56;69.95
6134;BME280;3098;42.678;23.364;2023-04-05T11:37:53;94661.19;;;5.10;70.65
6134;BME280;3098;42.678;23.364;2023-04-05T11:40:28;94652.56;;;4.76;73.03
6134;BME280;3098;42.678;23.364;2023-04-05T11:43:03;94653.81;;;4.55;74.14
6134;BME280;3098;42.678;23.364;2023-04-05T11:45:34;94647.88;;;4.73;72.79
6134;BME280;3098;42.678;23.364;2023-04-05T11:48:04;94655.34;;;4.90;72.09
6134;BME280;3098;42.678;23.364;2023-04-05T11:50:32;94583.44;;;4.81;71.67
6134;BME280;3098;42.678;23.364;2023-04-05T11:53:14;94641.97;;;4.57;72.58
6134;BME280;3098;42.678;23.364;2023-04-05T11:55:45;94636.47;;;4.83;73.02
6134;BME280;3098;42.678;23.364;2023-04-05T11:58:14;94602.06;;;4.55;72.08
6134;BME280;3098;42.678;23.364;2023-04-05T12:00:45;94610.63;;;4.03;74.92
6134;BME280;3098;42.678;23.364;2023-04-05T12:03:13;94643.69;;;4.04;76.96
6134;BME280;3098;42.678;23.364;2023-04-05T12:05:47;94499.66;;;3.30;77.31
6134;BME280;3098;42.678;23.364;2023-04-05T12:08:16;94648.16;;;4.04;78.92
6134;BME280;3098;42.678;23.364;2023-04-05T12:10:44;94600.94;;;3.55;79.46
6134;BME280;3098;42.678;23.364;2023-04-05T12:13:24;94670.41;;;4.12;79.99
6134;BME280;3098;42.678;23.364;2023-04-05T12:15:52;94581.41;;;3.81;79.83
6134;BME280;3098;42.678;23.364;2023-04-05T12:18:19;94652.06;;;4.06;81.08
6134;BME280;3098;42.678;23.364;2023-04-05T12:20:46;94649.00;;;3.94;83.41
6134;BME280;3098;42.678;23.364;2023-04-05T12:23:13;94551.59;;;3.18;84.52
6134;BME280;3098;42.678;23.364;2023-04-05T12:25:46;94637.31;;;4.16;85.12
6134;BME280;3098;42.678;23.364;2023-04-05T12:28:14;94641.75;;;4.54;83.03
6134;BME280;3098;42.678;23.364;2023-04-05T12:30:48;94640.09;;;4.29;81.85
6134;BME280;3098;42.678;23.364;2023-04-05T12:33:25;94582.09;;;3.97;80.18
6134;BME280;3098;42.678;23.364;2023-04-05T12:35:53;94633.34;;;4.18;80.21
6134;BME280;3098;42.678;23.364;2023-04-05T12:38:24;94635.09;;;4.33;81.94
6134;BME280;3098;42.678;23.364;2023-04-05T12:40:53;94623.78;;;4.32;82.70
6134;BME280;3098;42.678;23.364;2023-04-05T12:43:20;94639.75;;;4.70;81.11
6134;BME280;3098;42.678;23.364;2023-04-05T12:45:48;94640.47;;;4.46;80.12
6134;BME280;3098;42.678;23.364;2023-04-05T12:48:20;94615.97;;;4.27;81.17
6134;BME280;3098;42.678;23.364;2023-04-05T12:50:49;94647.63;;;4.41;79.92
6134;BME280;3098;42.678;23.364;2023-04-05T12:53:20;94601.13;;;4.13;82.47
6134;BME280;3098;42.678;23.364;2023-04-05T12:55:49;94647.47;;;4.27;82.06
6134;BME280;3098;42.678;23.364;2023-04-05T12:58:19;94607.78;;;3.56;83.80
6134;BME280;3098;42.678;23.364;2023-04-05T13:00:46;94617.34;;;3.32;86.13
6134;BME280;3098;42.678;23.364;2023-04-05T13:03:17;94550.16;;;2.97;86.36
6134;BME280;3098;42.678;23.364;2023-04-05T13:05:46;94616.69;;;3.60;85.55
6134;BME280;3098;42.678;23.364;2023-04-05T13:08:13;94658.41;;;3.52;83.58
6134;BME280;3098;42.678;23.364;2023-04-05T13:10:43;94580.25;;;3.00;83.66
6134;BME280;3098;42.678;23.364;2023-04-05T13:13:10;94639.03;;;3.47;83.08
6134;BME280;3098;42.678;23.364;2023-04-05T13:15:39;94648.66;;;3.62;83.25
6134;BME280;3098;42.678;23.364;2023-04-05T13:18:06;94640.94;;;3.86;82.17
6134;BME280;3098;42.678;23.364;2023-04-05T13:20:34;94639.03;;;3.47;82.02
6134;BME280;3098;42.678;23.364;2023-04-05T13:23:01;94547.09;;;2.75;82.84